Time;durP1;ratioP1;P1;durP2;ratioP2;P2;SDS_P1;SDS_P2;PMS_P1;PMS_P2;Temp;Humidity;BMP_temperature;BMP_pressure;BME280_temperature;BME280_humidity;BME280_pressure;Samples;Min_cycle;Max_cycle;Signal;HPM_P1;HPM_P2
2023/07/19 00:01:17;;;;;;;0.70;0.70;;;22.90;63.10;;;;;;5031901;28;20534;-78
2023/07/19 00:03:42;;;;;;;0.77;0.70;;;22.90;63.10;;;;;;5029565;28;20540;-78
2023/07/19 00:06:08;;;;;;;0.70;0.70;;;22.80;63.20;;;;;;5028256;28;20069;-78
2023/07/19 00:08:34;;;;;;;0.80;0.80;;;22.90;63.30;;;;;;5032838;28;20052;-77
2023/07/19 00:10:59;;;;;;;2.35;0.90;;;22.80;63.20;;;;;;5033937;28;20491;-77
2023/07/19 00:13:25;;;;;;;0.77;0.77;;;22.80;63.60;;;;;;5033024;28;20075;-77
2023/07/19 00:15:51;;;;;;;0.80;0.80;;;22.80;63.30;;;;;;5029217;28;20037;-77
2023/07/19 00:18:16;;;;;;;0.60;0.60;;;22.80;63.50;;;;;;5032415;28;20048;-77
2023/07/19 00:20:42;;;;;;;0.77;0.77;;;22.80;63.20;;;;;;5028076;28;20466;-77
2023/07/19 00:23:07;;;;;;;0.77;0.77;;;22.80;63.70;;;;;;5032444;28;20041;-78
2023/07/19 00:25:33;;;;;;;1.00;0.90;;;22.80;64.00;;;;;;5037798;28;20041;-77
2023/07/19 00:27:58;;;;;;;0.98;0.70;;;22.80;63.30;;;;;;5031723;28;20045;-77
2023/07/19 00:30:24;;;;;;;0.63;0.63;;;22.80;63.70;;;;;;5032496;28;20125;-77
2023/07/19 00:32:50;;;;;;;2.35;0.65;;;22.80;63.50;;;;;;5015641;28;20041;-77
2023/07/19 00:35:15;;;;;;;0.60;0.60;;;22.80;63.60;;;;;;5030002;28;20045;-77
2023/07/19 00:37:43;;;;;;;1.05;0.80;;;22.80;63.40;;;;;;5039577;28;20110;-77
2023/07/19 00:40:09;;;;;;;0.65;0.65;;;22.80;63.60;;;;;;5034414;28;20029;-77
2023/07/19 00:42:34;;;;;;;0.60;0.60;;;22.80;63.60;;;;;;5055018;28;20045;-77
2023/07/19 00:45:00;;;;;;;0.60;0.60;;;22.80;64.10;;;;;;5046337;28;20386;-77
2023/07/19 00:47:26;;;;;;;0.88;0.88;;;22.80;63.60;;;;;;5030967;28;20088;-77
2023/07/19 00:49:51;;;;;;;0.60;0.55;;;22.80;63.80;;;;;;5031462;28;20042;-77
2023/07/19 00:52:17;;;;;;;0.70;0.70;;;22.80;64.00;;;;;;5057567;28;20648;-77
2023/07/19 00:54:42;;;;;;;0.80;0.80;;;22.80;63.80;;;;;;5044828;28;20061;-77
2023/07/19 00:57:08;;;;;;;0.77;0.68;;;22.80;64.80;;;;;;5030233;28;20045;-78
2023/07/19 00:59:34;;;;;;;0.60;0.60;;;22.80;64.00;;;;;;5035015;28;20512;-77
2023/07/19 01:01:59;;;;;;;0.70;0.60;;;22.80;64.20;;;;;;5049801;28;20430;-77
2023/07/19 01:04:26;;;;;;;0.98;0.68;;;22.80;63.80;;;;;;5034325;28;20418;-77
2023/07/19 01:06:52;;;;;;;0.82;0.60;;;22.80;64.00;;;;;;5048909;28;20041;-78
2023/07/19 01:09:17;;;;;;;0.60;0.60;;;22.80;64.00;;;;;;5051014;28;20083;-77
2023/07/19 01:11:43;;;;;;;0.60;0.60;;;22.80;64.20;;;;;;5033241;28;20340;-77
2023/07/19 01:14:08;;;;;;;0.47;0.47;;;22.80;64.20;;;;;;5049434;28;20064;-77
2023/07/19 01:16:34;;;;;;;0.75;0.75;;;22.80;64.10;;;;;;5057767;28;20036;-78
2023/07/19 01:19:00;;;;;;;0.65;0.65;;;22.80;64.00;;;;;;5042297;28;20180;-78
2023/07/19 01:21:25;;;;;;;0.60;0.60;;;22.70;64.00;;;;;;5051538;28;20116;-78
2023/07/19 01:23:51;;;;;;;0.60;0.60;;;22.80;64.20;;;;;;5053273;28;20041;-78
2023/07/19 01:26:17;;;;;;;0.45;0.45;;;22.70;64.00;;;;;;5051510;28;20036;-78
2023/07/19 01:28:43;;;;;;;0.70;0.70;;;22.70;64.70;;;;;;5056969;28;20079;-77
2023/07/19 01:31:09;;;;;;;0.43;0.43;;;22.70;64.10;;;;;;5058211;28;20045;-77
2023/07/19 01:33:35;;;;;;;0.50;0.50;;;22.70;64.10;;;;;;5053344;28;20055;-78
2023/07/19 01:36:01;;;;;;;0.65;0.65;;;22.70;64.10;;;;;;5051613;28;20041;-78
2023/07/19 01:38:26;;;;;;;0.50;0.50;;;22.70;64.20;;;;;;5050138;28;20715;-78
2023/07/19 01:40:52;;;;;;;1.38;0.40;;;22.70;64.20;;;;;;5056130;28;20035;-77
2023/07/19 01:43:18;;;;;;;1.42;0.60;;;22.70;64.40;;;;;;5041819;28;20107;-78
2023/07/19 01:45:44;;;;;;;0.40;0.40;;;22.70;64.20;;;;;;5050574;28;20846;-78
2023/07/19 01:48:10;;;;;;;0.50;0.50;;;22.70;64.10;;;;;;5038980;28;20064;-78
2023/07/19 01:50:35;;;;;;;0.60;0.60;;;22.70;64.10;;;;;;5031999;28;20072;-78
2023/07/19 01:53:02;;;;;;;0.60;0.60;;;22.70;64.20;;;;;;5052743;28;20049;-78
2023/07/19 01:55:27;;;;;;;0.80;0.80;;;22.70;64.10;;;;;;5032384;28;20080;-78
2023/07/19 01:57:53;;;;;;;0.68;0.50;;;22.70;64.10;;;;;;5038344;28;20095;-77
2023/07/19 02:00:18;;;;;;;0.60;0.60;;;22.70;64.20;;;;;;5028806;28;20049;-78
2023/07/19 02:02:44;;;;;;;0.65;0.65;;;22.70;64.10;;;;;;5032724;28;20041;-78
2023/07/19 02:05:09;;;;;;;0.40;0.40;;;22.70;64.00;;;;;;5037519;28;22031;-78
2023/07/19 02:07:35;;;;;;;0.50;0.50;;;22.70;65.00;;;;;;5058810;28;20064;-78
2023/07/19 02:10:01;;;;;;;0.60;0.57;;;22.70;64.30;;;;;;5030750;28;20128;-78
2023/07/19 02:12:27;;;;;;;0.52;0.50;;;22.70;64.20;;;;;;5031641;28;20037;-78
2023/07/19 02:14:54;;;;;;;0.93;0.82;;;22.70;64.20;;;;;;5029346;28;20088;-78
2023/07/19 02:17:19;;;;;;;0.82;0.60;;;22.70;64.10;;;;;;5033605;28;20046;-78
2023/07/19 02:19:45;;;;;;;0.70;0.70;;;22.70;64.20;;;;;;5042321;28;20045;-78
2023/07/19 02:22:10;;;;;;;0.63;0.50;;;22.70;64.10;;;;;;5052906;28;20051;-77
2023/07/19 02:24:36;;;;;;;0.63;0.63;;;22.70;64.10;;;;;;5033488;28;20045;-78
2023/07/19 02:27:02;;;;;;;0.50;0.50;;;22.70;64.20;;;;;;5049401;28;20123;-77
2023/07/19 02:29:27;;;;;;;0.73;0.70;;;22.70;64.10;;;;;;5049023;28;20049;-77
2023/07/19 02:31:53;;;;;;;0.80;0.80;;;22.70;64.20;;;;;;5035463;28;20490;-77
2023/07/19 02:34:20;;;;;;;1.50;0.70;;;22.70;64.20;;;;;;5051564;28;20033;-77
2023/07/19 02:36:46;;;;;;;0.85;0.70;;;22.70;64.20;;;;;;5064113;28;20182;-77
2023/07/19 02:39:12;;;;;;;1.17;0.98;;;22.70;64.20;;;;;;5053294;28;20048;-77
2023/07/19 02:41:37;;;;;;;1.55;0.85;;;22.70;64.20;;;;;;5047800;28;20545;-77
2023/07/19 02:44:03;;;;;;;1.65;1.33;;;22.70;64.20;;;;;;5035802;28;20091;-77
2023/07/19 02:46:29;;;;;;;0.50;0.43;;;22.70;64.20;;;;;;5053789;28;20052;-77
2023/07/19 02:48:54;;;;;;;0.80;0.80;;;22.70;64.20;;;;;;5035961;28;20038;-77
2023/07/19 02:51:20;;;;;;;0.82;0.82;;;22.70;64.20;;;;;;5051622;28;20040;-77
2023/07/19 02:53:46;;;;;;;0.55;0.43;;;22.70;64.20;;;;;;5028401;28;20042;-77
2023/07/19 02:56:11;;;;;;;0.68;0.60;;;22.70;64.20;;;;;;5040174;28;20838;-78
2023/07/19 02:58:37;;;;;;;0.40;0.40;;;22.70;64.10;;;;;;5047080;28;20045;-77
2023/07/19 03:01:03;;;;;;;0.70;0.60;;;22.70;64.20;;;;;;5034960;28;20037;-77
2023/07/19 03:03:29;;;;;;;0.50;0.50;;;22.70;64.40;;;;;;5031711;28;20190;-78
2023/07/19 03:05:55;;;;;;;0.68;0.50;;;22.70;64.10;;;;;;5028303;28;20045;-77
2023/07/19 03:08:20;;;;;;;0.55;0.55;;;22.70;64.10;;;;;;5035636;28;20057;-78
2023/07/19 03:10:51;;;;;;;0.57;0.50;;;22.70;64.20;;;;;;5035610;28;20036;-77
2023/07/19 03:13:16;;;;;;;0.50;0.50;;;22.70;64.10;;;;;;5030527;28;20095;-77
2023/07/19 03:15:45;;;;;;;0.63;0.63;;;22.70;65.00;;;;;;5027512;28;20069;-77
2023/07/19 03:18:10;;;;;;;0.47;0.40;;;22.70;64.10;;;;;;5033327;28;20041;-78
2023/07/19 03:20:36;;;;;;;0.93;0.65;;;22.70;64.10;;;;;;5025298;28;20095;-78
2023/07/19 03:23:02;;;;;;;0.43;0.40;;;22.70;64.00;;;;;;5035582;28;20438;-78
2023/07/19 03:25:28;;;;;;;0.50;0.50;;;22.70;64.30;;;;;;5035061;28;20037;-78
2023/07/19 03:27:54;;;;;;;0.68;0.47;;;22.70;64.10;;;;;;5031274;28;20037;-78
2023/07/19 03:30:19;;;;;;;0.60;0.40;;;22.70;64.10;;;;;;5029580;28;20087;-77
2023/07/19 03:32:46;;;;;;;0.60;0.60;;;22.70;64.10;;;;;;5032415;28;20125;-77
2023/07/19 03:35:11;;;;;;;1.83;0.50;;;22.70;64.20;;;;;;5032519;28;20057;-77
2023/07/19 03:37:37;;;;;;;0.57;0.50;;;22.70;64.40;;;;;;5039452;28;20040;-77
2023/07/19 03:40:04;;;;;;;0.60;0.60;;;22.60;64.40;;;;;;5039067;28;20045;-78
2023/07/19 03:42:29;;;;;;;1.10;0.90;;;22.70;64.50;;;;;;5047610;28;20036;-78
2023/07/19 03:44:55;;;;;;;1.25;0.57;;;22.70;64.20;;;;;;5031927;28;20503;-77
2023/07/19 03:47:21;;;;;;;0.73;0.60;;;22.70;64.40;;;;;;5030707;28;20045;-77
2023/07/19 03:49:46;;;;;;;0.73;0.55;;;22.70;64.50;;;;;;5038730;28;20076;-77
2023/07/19 03:52:12;;;;;;;1.00;0.88;;;22.70;64.20;;;;;;5034268;28;21238;-77
2023/07/19 03:54:37;;;;;;;0.45;0.45;;;22.70;64.20;;;;;;5034797;28;20499;-77
2023/07/19 03:57:03;;;;;;;0.68;0.50;;;22.70;64.20;;;;;;5028646;28;20133;-77
2023/07/19 03:59:29;;;;;;;0.50;0.50;;;22.70;64.40;;;;;;5031956;28;20092;-77
2023/07/19 04:01:55;;;;;;;0.47;0.45;;;22.70;64.40;;;;;;5032282;28;20107;-77
2023/07/19 04:04:20;;;;;;;0.70;0.50;;;22.70;64.30;;;;;;5032984;28;20498;-77
2023/07/19 04:06:46;;;;;;;0.70;0.70;;;22.70;64.50;;;;;;5030675;28;20037;-77
2023/07/19 04:09:12;;;;;;;0.50;0.50;;;22.70;64.60;;;;;;5030633;28;20127;-77
2023/07/19 04:11:37;;;;;;;0.40;0.40;;;22.70;64.40;;;;;;5030815;28;20435;-77
2023/07/19 04:14:03;;;;;;;0.52;0.52;;;22.70;64.20;;;;;;5033535;28;20075;-77
2023/07/19 04:16:28;;;;;;;0.70;0.70;;;22.70;64.70;;;;;;5034018;28;20051;-77
2023/07/19 04:18:54;;;;;;;0.80;0.50;;;22.70;65.10;;;;;;5035961;28;20095;-77
2023/07/19 04:21:19;;;;;;;0.50;0.50;;;22.70;65.00;;;;;;5035741;28;20036;-77
2023/07/19 04:23:45;;;;;;;0.50;0.50;;;22.70;65.20;;;;;;5039051;28;20120;-77
2023/07/19 04:26:11;;;;;;;0.50;0.40;;;22.70;65.00;;;;;;5033532;28;20671;-77
2023/07/19 04:28:36;;;;;;;0.40;0.40;;;22.70;65.00;;;;;;5048107;28;20551;-76
2023/07/19 04:31:02;;;;;;;0.50;0.35;;;22.70;65.40;;;;;;5020849;28;20033;-76
2023/07/19 04:33:27;;;;;;;0.65;0.50;;;22.70;65.70;;;;;;5031557;28;20124;-77
2023/07/19 04:35:53;;;;;;;0.57;0.40;;;22.70;65.70;;;;;;5027155;28;20050;-77
2023/07/19 04:38:18;;;;;;;0.32;0.32;;;22.70;65.90;;;;;;5032482;28;20068;-77
2023/07/19 04:40:44;;;;;;;0.30;0.30;;;22.70;65.80;;;;;;5035893;28;20042;-77
2023/07/19 04:43:10;;;;;;;1.05;0.47;;;22.70;65.70;;;;;;5033885;28;20099;-77
2023/07/19 04:45:35;;;;;;;0.40;0.40;;;22.70;65.70;;;;;;5028960;28;20079;-77
2023/07/19 04:48:01;;;;;;;0.50;0.50;;;22.70;66.50;;;;;;5036245;28;20057;-77
2023/07/19 04:50:27;;;;;;;0.82;0.60;;;22.70;64.80;;;;;;5051443;28;20060;-78
2023/07/19 04:52:53;;;;;;;0.90;0.77;;;22.40;63.10;;;;;;5038925;28;20610;-77
2023/07/19 04:55:19;;;;;;;0.98;0.77;;;21.50;65.20;;;;;;5035419;28;20049;-78
2023/07/19 04:57:45;;;;;;;2.20;0.70;;;20.80;67.90;;;;;;5030305;28;20111;-77
2023/07/19 05:00:14;;;;;;;0.80;0.52;;;20.50;69.40;;;;;;5036136;28;20055;-74
2023/07/19 05:02:43;;;;;;;1.58;0.88;;;20.20;70.20;;;;;;5052228;28;20038;-77
2023/07/19 05:05:09;;;;;;;1.10;0.70;;;20.20;71.00;;;;;;5049434;28;20057;-79
2023/07/19 05:07:37;;;;;;;1.05;0.65;;;20.00;71.50;;;;;;5037770;28;20049;-80
2023/07/19 05:10:04;;;;;;;0.80;0.70;;;20.00;71.90;;;;;;5048543;28;20558;-75
2023/07/19 05:12:33;;;;;;;0.95;0.95;;;19.90;72.00;;;;;;5034574;28;20037;-77
2023/07/19 05:14:58;;;;;;;1.23;1.00;;;20.00;71.70;;;;;;5051718;28;20061;-76
2023/07/19 05:17:24;;;;;;;2.80;1.00;;;20.00;71.50;;;;;;5044308;28;20083;-76
2023/07/19 05:19:49;;;;;;;1.45;0.80;;;19.90;71.80;;;;;;5050765;28;21093;-76
2023/07/19 05:22:15;;;;;;;2.17;0.80;;;19.70;72.40;;;;;;5035619;28;20042;-77
2023/07/19 05:24:41;;;;;;;1.38;0.70;;;19.80;72.60;;;;;;5036171;28;20119;-76
2023/07/19 05:27:06;;;;;;;1.52;0.82;;;19.80;72.70;;;;;;5035658;28;20392;-76
2023/07/19 05:29:32;;;;;;;1.60;0.70;;;19.90;72.20;;;;;;5034255;28;20030;-76
2023/07/19 05:31:58;;;;;;;0.80;0.80;;;19.90;71.90;;;;;;5037806;28;20045;-75
2023/07/19 05:34:24;;;;;;;3.25;0.90;;;19.90;72.30;;;;;;5035672;28;20034;-76
2023/07/19 05:36:49;;;;;;;1.15;0.95;;;19.80;72.60;;;;;;5032851;28;20696;-76
2023/07/19 05:39:15;;;;;;;1.17;0.63;;;20.10;71.70;;;;;;5029944;28;20045;-75
2023/07/19 05:41:40;;;;;;;1.85;1.27;;;19.90;71.90;;;;;;5033829;28;20065;-75
2023/07/19 05:44:06;;;;;;;3.70;1.27;;;19.80;72.50;;;;;;5030881;28;20506;-75
2023/07/19 05:46:35;;;;;;;1.30;1.20;;;19.70;72.80;;;;;;5032510;28;20043;-76
2023/07/19 05:49:00;;;;;;;3.15;1.13;;;19.60;73.50;;;;;;5049011;28;20052;-75
2023/07/19 05:51:26;;;;;;;1.20;0.98;;;19.50;73.70;;;;;;5031432;28;20088;-74
2023/07/19 05:53:51;;;;;;;1.73;1.17;;;19.50;73.90;;;;;;5034220;28;20034;-75
2023/07/19 05:56:17;;;;;;;1.85;0.88;;;19.60;73.50;;;;;;5030397;28;20056;-75
2023/07/19 05:58:42;;;;;;;2.13;0.90;;;19.60;73.30;;;;;;5036691;28;20053;-75
2023/07/19 06:01:09;;;;;;;1.35;0.90;;;19.60;73.90;;;;;;5033607;28;20522;-76
2023/07/19 06:03:35;;;;;;;0.73;0.73;;;19.60;74.50;;;;;;5036345;28;20387;-76
2023/07/19 06:06:05;;;;;;;1.40;0.93;;;19.50;73.70;;;;;;5034417;28;20053;-76
2023/07/19 06:08:32;;;;;;;4.70;1.45;;;19.30;74.40;;;;;;5034507;28;20041;-77
2023/07/19 06:10:57;;;;;;;2.22;1.63;;;19.20;75.20;;;;;;5034698;28;20049;-74
2023/07/19 06:13:23;;;;;;;2.03;0.88;;;19.30;74.90;;;;;;5037190;28;20084;-74
2023/07/19 06:15:49;;;;;;;2.80;1.25;;;19.50;74.40;;;;;;5038984;28;20055;-74
2023/07/19 06:18:14;;;;;;;3.72;1.60;;;19.80;72.90;;;;;;5034836;28;20107;-74
2023/07/19 06:20:40;;;;;;;1.20;1.00;;;20.00;72.40;;;;;;5031583;28;20045;-74
2023/07/19 06:23:05;;;;;;;1.17;1.00;;;20.10;71.50;;;;;;5032494;28;20107;-74
2023/07/19 06:25:31;;;;;;;2.00;1.08;;;20.30;70.80;;;;;;5034536;28;20037;-74
2023/07/19 06:27:57;;;;;;;1.15;0.90;;;20.40;71.10;;;;;;5035048;28;20069;-76
2023/07/19 06:30:22;;;;;;;1.70;0.90;;;20.50;70.00;;;;;;5032408;28;20045;-75
2023/07/19 06:32:48;;;;;;;1.63;0.93;;;20.50;69.90;;;;;;5049879;28;21347;-75
2023/07/19 06:35:13;;;;;;;1.05;1.00;;;20.60;70.00;;;;;;5036295;28;20616;-75
2023/07/19 06:37:39;;;;;;;1.88;0.82;;;20.60;69.90;;;;;;5034714;28;20419;-75
2023/07/19 06:40:05;;;;;;;1.20;0.90;;;20.70;69.70;;;;;;5033079;28;20041;-75
2023/07/19 06:42:32;;;;;;;1.65;1.13;;;20.70;69.60;;;;;;5030500;28;20045;-75
2023/07/19 06:44:58;;;;;;;2.17;1.20;;;20.70;69.60;;;;;;5032500;28;20037;-75
2023/07/19 06:47:24;;;;;;;1.73;1.05;;;20.60;69.70;;;;;;5036356;28;20124;-75
2023/07/19 06:49:49;;;;;;;2.38;0.88;;;20.80;69.50;;;;;;5035518;28;21739;-75
2023/07/19 06:52:16;;;;;;;1.15;0.70;;;20.70;69.40;;;;;;5034859;28;20136;-75
2023/07/19 06:54:41;;;;;;;1.63;1.00;;;20.70;69.60;;;;;;5032154;28;20426;-75
2023/07/19 06:57:07;;;;;;;1.13;0.60;;;20.80;69.50;;;;;;5030142;28;20526;-74
2023/07/19 06:59:32;;;;;;;1.35;0.80;;;20.70;69.60;;;;;;5033267;28;20505;-74
2023/07/19 07:01:58;;;;;;;1.70;1.20;;;20.80;69.40;;;;;;5038073;28;20467;-75
2023/07/19 07:04:24;;;;;;;1.08;0.98;;;20.80;69.30;;;;;;5037611;28;20056;-75
2023/07/19 07:06:50;;;;;;;1.33;1.02;;;20.80;69.30;;;;;;5030254;28;20037;-75
2023/07/19 07:09:15;;;;;;;1.15;0.90;;;20.80;69.20;;;;;;5033710;28;20052;-75
2023/07/19 07:11:41;;;;;;;2.28;0.90;;;20.90;69.90;;;;;;5047956;28;20046;-75
2023/07/19 07:14:07;;;;;;;2.30;0.82;;;20.90;68.90;;;;;;5026676;28;20495;-76
2023/07/19 07:16:33;;;;;;;1.67;1.15;;;21.00;68.50;;;;;;5035710;28;20049;-77
2023/07/19 07:18:59;;;;;;;1.00;0.80;;;20.90;68.50;;;;;;5038242;28;20037;-76
2023/07/19 07:21:25;;;;;;;0.88;0.82;;;21.00;69.00;;;;;;5044528;28;20036;-75
2023/07/19 07:23:51;;;;;;;1.58;0.65;;;20.90;68.50;;;;;;5032044;28;20080;-76
2023/07/19 07:26:16;;;;;;;1.58;1.13;;;20.90;68.80;;;;;;5036094;28;20084;-75
2023/07/19 07:28:42;;;;;;;0.85;0.77;;;20.80;68.80;;;;;;5034321;28;20047;-76
2023/07/19 07:31:08;;;;;;;1.13;0.73;;;20.90;68.90;;;;;;5030714;28;20119;-76
2023/07/19 07:33:35;;;;;;;1.33;0.90;;;20.90;68.80;;;;;;5031516;28;20037;-74
2023/07/19 07:36:00;;;;;;;1.58;1.45;;;20.90;68.70;;;;;;5029627;28;20052;-74
2023/07/19 07:38:26;;;;;;;1.60;1.15;;;20.90;69.10;;;;;;5029640;28;20550;-74
2023/07/19 07:41:05;;;;;;;1.65;0.80;;;20.90;69.30;;;;;;5006894;28;20491;-75
2023/07/19 07:43:30;;;;;;;1.25;1.10;;;21.00;69.00;;;;;;5040725;28;20038;-75
2023/07/19 07:45:56;;;;;;;1.10;0.75;;;21.10;68.80;;;;;;5031366;28;20129;-75
2023/07/19 07:48:22;;;;;;;1.17;0.80;;;21.00;68.70;;;;;;5032344;28;20546;-75
2023/07/19 07:50:51;;;;;;;1.98;0.90;;;21.00;68.80;;;;;;5031668;28;20037;-75
2023/07/19 07:53:20;;;;;;;1.27;1.10;;;21.00;68.70;;;;;;5025351;28;20103;-76
2023/07/19 07:55:46;;;;;;;1.55;0.90;;;21.00;68.80;;;;;;5035089;28;20052;-76
2023/07/19 07:58:12;;;;;;;0.70;0.50;;;21.00;69.00;;;;;;5030752;28;20052;-76
2023/07/19 08:00:38;;;;;;;1.30;0.90;;;21.10;69.00;;;;;;5043405;28;20044;-76
2023/07/19 08:03:03;;;;;;;0.75;0.70;;;21.20;68.80;;;;;;5026460;28;20413;-76
2023/07/19 08:05:31;;;;;;;9.88;0.88;;;21.20;68.50;;;;;;5033832;28;20508;-75
2023/07/19 08:07:56;;;;;;;1.88;0.95;;;21.20;68.30;;;;;;5033326;28;20041;-75
2023/07/19 08:10:22;;;;;;;2.90;0.90;;;21.30;68.20;;;;;;5034519;28;20506;-75
2023/07/19 08:12:48;;;;;;;1.00;0.95;;;21.30;68.10;;;;;;5031442;28;20055;-76
2023/07/19 08:15:13;;;;;;;1.55;1.00;;;21.40;68.00;;;;;;5027245;28;20060;-76
2023/07/19 08:17:39;;;;;;;1.30;1.00;;;21.40;67.90;;;;;;5031586;28;20537;-76
2023/07/19 08:20:06;;;;;;;2.08;1.10;;;21.50;67.90;;;;;;5030644;28;20065;-76
2023/07/19 08:22:33;;;;;;;1.23;0.90;;;21.50;67.80;;;;;;5036844;28;20051;-76
2023/07/19 08:24:59;;;;;;;1.88;1.13;;;21.50;67.70;;;;;;5029328;28;20080;-76
2023/07/19 08:27:25;;;;;;;1.20;0.82;;;21.50;67.70;;;;;;5030129;28;20049;-76
2023/07/19 08:29:51;;;;;;;1.13;0.80;;;21.50;67.60;;;;;;5034430;28;20115;-76
2023/07/19 08:32:17;;;;;;;0.95;0.95;;;21.50;67.60;;;;;;5037001;28;20037;-76
2023/07/19 08:34:43;;;;;;;1.20;1.10;;;21.50;67.50;;;;;;5045425;28;20067;-76
2023/07/19 08:37:09;;;;;;;1.08;0.80;;;21.60;67.50;;;;;;5031811;28;20099;-75
2023/07/19 08:39:34;;;;;;;0.95;0.90;;;21.60;67.50;;;;;;5034812;28;20041;-76
2023/07/19 08:42:03;;;;;;;1.20;1.10;;;21.60;67.40;;;;;;5037598;28;20049;-76
2023/07/19 08:44:29;;;;;;;1.10;1.10;;;21.60;67.30;;;;;;5034043;28;20629;-76
2023/07/19 08:46:55;;;;;;;1.25;1.15;;;21.60;67.30;;;;;;5037792;28;20558;-76
2023/07/19 08:49:21;;;;;;;0.90;0.90;;;21.60;67.30;;;;;;5034538;28;20624;-76
2023/07/19 08:51:47;;;;;;;1.92;1.10;;;21.70;67.30;;;;;;5039861;28;20046;-76
2023/07/19 08:54:12;;;;;;;1.33;1.23;;;21.70;67.20;;;;;;5038575;28;20051;-76
2023/07/19 08:56:39;;;;;;;1.10;0.90;;;21.70;67.20;;;;;;5032485;28;20125;-76
2023/07/19 08:59:08;;;;;;;1.13;0.90;;;21.70;67.10;;;;;;5033717;28;20100;-76
2023/07/19 09:01:34;;;;;;;1.42;1.00;;;21.70;67.00;;;;;;5040681;28;20044;-76
2023/07/19 09:04:07;;;;;;;1.15;1.15;;;21.70;67.00;;;;;;5032906;28;20045;-76
2023/07/19 09:06:33;;;;;;;0.88;0.88;;;21.70;66.90;;;;;;5035106;28;20396;-76
2023/07/19 09:08:59;;;;;;;1.50;1.10;;;21.80;67.00;;;;;;5033784;28;20064;-76
2023/07/19 09:11:25;;;;;;;1.55;1.00;;;21.80;66.90;;;;;;5048480;28;20038;-76
2023/07/19 09:13:52;;;;;;;1.02;0.82;;;21.80;67.00;;;;;;5034523;28;20071;-75
2023/07/19 09:16:18;;;;;;;1.05;0.90;;;21.80;66.90;;;;;;5052336;28;20410;-75
2023/07/19 09:18:45;;;;;;;1.17;0.80;;;21.80;66.80;;;;;;5033202;28;20506;-76
2023/07/19 09:21:10;;;;;;;0.80;0.80;;;21.80;66.80;;;;;;5036306;28;20124;-77
2023/07/19 09:23:36;;;;;;;1.02;0.90;;;21.80;66.70;;;;;;5031973;28;20148;-76
2023/07/19 09:26:03;;;;;;;1.00;0.73;;;21.80;66.70;;;;;;5033799;28;20037;-76
2023/07/19 09:28:29;;;;;;;0.90;0.90;;;21.80;66.70;;;;;;5036871;28;20053;-75
2023/07/19 09:31:02;;;;;;;0.90;0.80;;;21.80;66.70;;;;;;5034106;28;20041;-76
2023/07/19 09:33:27;;;;;;;1.33;0.90;;;21.90;66.60;;;;;;5028964;28;20037;-76
2023/07/19 09:35:56;;;;;;;1.02;0.90;;;21.90;66.50;;;;;;5031418;28;20588;-76
2023/07/19 09:38:22;;;;;;;0.82;0.63;;;21.90;66.50;;;;;;5034706;28;20417;-76
2023/07/19 09:40:51;;;;;;;1.00;0.80;;;21.90;66.50;;;;;;5037805;28;20051;-76
2023/07/19 09:43:17;;;;;;;1.00;0.90;;;21.90;67.30;;;;;;5038202;28;20037;-75
2023/07/19 09:45:43;;;;;;;1.02;0.95;;;21.90;67.30;;;;;;5034279;28;20051;-75
2023/07/19 09:48:09;;;;;;;0.70;0.70;;;21.90;66.40;;;;;;5033418;28;20046;-77
2023/07/19 09:50:37;;;;;;;1.20;1.10;;;21.90;66.30;;;;;;5037724;28;20045;-77
2023/07/19 09:53:02;;;;;;;0.60;0.60;;;21.90;66.20;;;;;;5033398;28;20049;-76
2023/07/19 09:55:28;;;;;;;1.02;0.80;;;21.90;66.10;;;;;;5035762;28;20403;-77
2023/07/19 09:57:54;;;;;;;0.60;0.60;;;21.90;66.00;;;;;;5034401;28;20116;-77
2023/07/19 10:00:20;;;;;;;0.57;0.57;;;21.90;66.00;;;;;;5013305;28;20171;-77
2023/07/19 10:02:45;;;;;;;1.15;0.73;;;21.90;66.70;;;;;;5033379;28;20075;-76
2023/07/19 10:05:11;;;;;;;0.80;0.80;;;22.00;65.90;;;;;;5029882;28;20076;-76
2023/07/19 10:07:37;;;;;;;0.68;0.68;;;22.00;65.90;;;;;;5035562;28;20029;-77
2023/07/19 10:10:04;;;;;;;1.70;1.20;;;22.00;65.90;;;;;;5028984;28;20033;-78
2023/07/19 10:12:31;;;;;;;0.70;0.70;;;22.00;65.90;;;;;;5029701;28;20033;-77
2023/07/19 10:15:04;;;;;;;0.60;0.60;;;22.00;65.90;;;;;;5034159;28;20140;-77
2023/07/19 10:17:40;;;;;;;0.50;0.50;;;22.10;66.00;;;;;;5033724;28;20034;-77
2023/07/19 10:20:14;;;;;;;0.80;0.70;;;22.00;66.00;;;;;;5030974;28;20046;-77
2023/07/19 10:22:49;;;;;;;0.88;0.70;;;22.00;66.00;;;;;;5038082;28;20086;-77
2023/07/19 10:25:22;;;;;;;0.68;0.68;;;22.00;65.90;;;;;;5028057;28;20103;-77
2023/07/19 10:27:56;;;;;;;0.93;0.73;;;22.10;66.00;;;;;;5034818;28;20048;-78
2023/07/19 10:30:41;;;;;;;0.50;0.50;;;22.10;66.00;;;;;;5031569;28;20045;-77
2023/07/19 10:33:06;;;;;;;0.70;0.70;;;22.00;65.90;;;;;;5033418;28;20029;-76
2023/07/19 10:35:32;;;;;;;0.60;0.60;;;22.10;66.00;;;;;;5035705;28;20084;-77
2023/07/19 10:37:57;;;;;;;0.75;0.50;;;22.10;66.00;;;;;;5031760;28;20159;-76
2023/07/19 10:40:23;;;;;;;0.50;0.50;;;22.10;65.90;;;;;;5035842;28;20044;-76
2023/07/19 10:42:49;;;;;;;0.60;0.60;;;22.10;65.80;;;;;;5029860;28;20064;-76
2023/07/19 10:45:15;;;;;;;0.68;0.60;;;22.10;66.50;;;;;;5030392;28;20041;-78
2023/07/19 10:47:41;;;;;;;0.50;0.50;;;22.10;65.10;;;;;;5025632;28;20048;-78
2023/07/19 10:50:10;;;;;;;0.73;0.60;;;22.10;65.10;;;;;;5031491;28;20148;-78
2023/07/19 10:52:36;;;;;;;1.00;0.60;;;22.10;65.50;;;;;;5031850;28;20129;-77
2023/07/19 10:55:01;;;;;;;0.70;0.70;;;22.10;65.50;;;;;;5027624;28;20134;-77
2023/07/19 10:57:27;;;;;;;1.15;0.73;;;22.10;65.70;;;;;;5036724;28;20495;-78
2023/07/19 10:59:53;;;;;;;0.80;0.50;;;22.10;66.00;;;;;;5031630;28;20049;-78
2023/07/19 11:02:19;;;;;;;1.38;0.80;;;22.10;66.60;;;;;;5033546;28;20047;-78
2023/07/19 11:04:48;;;;;;;0.63;0.57;;;22.20;66.40;;;;;;5039928;28;20052;-79
2023/07/19 11:07:14;;;;;;;0.93;0.40;;;22.00;66.90;;;;;;5033503;28;20045;-79
2023/07/19 11:09:42;;;;;;;0.50;0.50;;;22.00;66.90;;;;;;5028368;28;20095;-78
2023/07/19 11:12:11;;;;;;;0.55;0.55;;;22.00;67.00;;;;;;5026242;28;20483;-77
2023/07/19 11:14:41;;;;;;;0.90;0.50;;;22.10;66.90;;;;;;5015488;28;20057;-78
2023/07/19 11:17:06;;;;;;;0.63;0.50;;;22.20;66.90;;;;;;5049361;28;20063;-78
2023/07/19 11:19:40;;;;;;;1.85;0.85;;;22.00;67.50;;;;;;5047122;28;20034;-80
2023/07/19 11:22:07;;;;;;;1.17;0.80;;;22.00;67.90;;;;;;5036944;28;20049;-81
2023/07/19 11:24:39;;;;;;;1.13;0.60;;;22.10;67.60;;;;;;5022382;28;20608;-78
2023/07/19 11:27:06;;;;;;;1.15;0.73;;;22.10;68.00;;;;;;5030972;28;20049;-76
2023/07/19 11:29:32;;;;;;;1.70;0.80;;;22.10;68.20;;;;;;5028465;28;20080;-77
2023/07/19 11:32:20;;;;;;;0.57;0.57;;;22.10;68.20;;;;;;5041225;28;20068;-77
2023/07/19 11:34:56;;;;;;;1.45;0.80;;;22.20;67.60;;;;;;5036069;28;20402;-77
2023/07/19 11:37:26;;;;;;;0.40;0.40;;;22.20;67.40;;;;;;5022044;28;20045;-76
2023/07/19 11:39:52;;;;;;;0.60;0.35;;;22.20;67.30;;;;;;5025094;28;20163;-76
2023/07/19 11:42:39;;;;;;;0.63;0.55;;;22.30;67.50;;;;;;5027794;28;20128;-75
2023/07/19 11:45:18;;;;;;;0.43;0.43;;;22.30;67.30;;;;;;5032664;28;20088;-76
2023/07/19 11:47:45;;;;;;;0.40;0.40;;;22.30;67.30;;;;;;5046872;28;20042;-76
2023/07/19 11:50:11;;;;;;;1.20;0.60;;;22.30;67.00;;;;;;5028417;28;20037;-76
2023/07/19 11:52:44;;;;;;;1.73;0.47;;;22.40;66.10;;;;;;5049431;28;20045;-76
2023/07/19 11:55:11;;;;;;;0.50;0.38;;;22.40;66.60;;;;;;5045416;28;20049;-75
2023/07/19 11:57:38;;;;;;;2.58;0.50;;;22.40;66.00;;;;;;5033586;28;20040;-76
2023/07/19 12:00:05;;;;;;;0.75;0.30;;;22.40;66.80;;;;;;5038586;28;20045;-75
2023/07/19 12:02:31;;;;;;;0.40;0.40;;;22.40;66.00;;;;;;5021829;28;20478;-77
2023/07/19 12:04:56;;;;;;;0.52;0.40;;;22.40;66.00;;;;;;5020738;28;20124;-77
2023/07/19 12:07:22;;;;;;;0.40;0.38;;;22.40;66.10;;;;;;5021921;28;20515;-75
2023/07/19 12:09:47;;;;;;;0.47;0.38;;;22.50;66.00;;;;;;5035216;28;20047;-77
2023/07/19 12:12:13;;;;;;;0.50;0.40;;;22.50;65.80;;;;;;5030351;28;20462;-75
2023/07/19 12:14:39;;;;;;;0.32;0.32;;;22.50;65.50;;;;;;5046684;28;20162;-75
2023/07/19 12:17:06;;;;;;;3.10;0.30;;;22.50;65.20;;;;;;5032137;28;20144;-75
2023/07/19 12:19:33;;;;;;;0.82;0.30;;;22.60;65.00;;;;;;5037049;28;20036;-76
2023/07/19 12:21:59;;;;;;;0.30;0.30;;;22.60;65.50;;;;;;5032698;28;20575;-76
2023/07/19 12:24:24;;;;;;;0.75;0.30;;;22.60;65.50;;;;;;5031405;28;20033;-75
2023/07/19 12:26:50;;;;;;;0.68;0.30;;;22.60;64.70;;;;;;5030315;28;20482;-76
2023/07/19 12:29:15;;;;;;;0.40;0.20;;;22.60;64.80;;;;;;5034628;28;20433;-75
2023/07/19 12:31:41;;;;;;;0.50;0.50;;;22.60;64.30;;;;;;5033518;28;20517;-75
2023/07/19 12:34:06;;;;;;;0.20;0.20;;;22.60;64.30;;;;;;5056048;28;20061;-75
2023/07/19 12:36:32;;;;;;;0.40;0.30;;;22.60;64.50;;;;;;5024922;28;20103;-75
2023/07/19 12:38:57;;;;;;;0.30;0.30;;;22.60;64.10;;;;;;5048030;28;20049;-75
2023/07/19 12:41:23;;;;;;;0.40;0.40;;;22.60;63.70;;;;;;5030396;28;20085;-75
2023/07/19 12:43:49;;;;;;;0.30;0.30;;;22.60;63.40;;;;;;5048612;28;20140;-75